MMPQ

Palenque International Airport

Mexico
TAF MMPQ 231647Z 2318/2418 00000KT 3SM BR HZ OVC025 FM232000 03012KT 5SM HZ BKN030CB BKN080 PROB40 2322/2402 3SM TSRA FM240300 00000KT 6SM HZ BKN030 BKN080 FM241000 00000KT 3SM BR HZ BKN020 BKN080 FM241700 03006KT 5SM HZ BKN030 BKN080
Issued Valid From Valid To
Apr-23 @ 16:47 UTC
(6 hours ago)
Apr-23 @ 18:00 UTC
(5 hours ago)
Apr-24 @ 18:00 UTC
(in 19 hours)
Expired Click to View Apr-23 @ 18:00 to Apr-23 @ 20:00
TAF MMPQ 231647Z 2318/2418 00000KT 3SM BR HZ OVC025
Visibility Clouds Conditions
3 miles
  • Overcast at 2,500' AGL
  • Mist
  • Haze
From Apr-23 @ 20:00 to Apr-24 @ 03:00
FM232000 03012KT 5SM HZ BKN030CB BKN080
Wind Visibility Clouds Conditions
30° at 12 knots 5 miles
  • Broken at 3,000' AGL
  • Broken at 8,000' AGL
  • Haze
Probable  (Probability 40%) Apr-23 @ 22:00 to Apr-24 @ 02:00
PROB40 2322/2402 3SM TSRA
Visibility Conditions
3 miles
  • Thunderstorm
  • Rain
From Apr-24 @ 03:00 to Apr-24 @ 10:00
FM240300 00000KT 6SM HZ BKN030 BKN080
Visibility Clouds Conditions
6 miles
  • Broken at 3,000' AGL
  • Broken at 8,000' AGL
  • Haze
From Apr-24 @ 10:00 to Apr-24 @ 17:00
FM241000 00000KT 3SM BR HZ BKN020 BKN080
Visibility Clouds Conditions
3 miles
  • Broken at 2,000' AGL
  • Broken at 8,000' AGL
  • Mist
  • Haze
From Apr-24 @ 17:00 to Apr-24 @ 18:00
FM241700 03006KT 5SM HZ BKN030 BKN080
Wind Visibility Clouds Conditions
30° at 6 knots 5 miles
  • Broken at 3,000' AGL
  • Broken at 8,000' AGL
  • Haze
TAF MMPQ 231647Z 2318/2418 00000KT 3SM BR HZ OVC025 FM232000 03012KT 5SM HZ BKN030CB BKN080 PROB40 2322/2402 3SM TSRA FM240300 00000KT 6SM HZ BKN030 BKN080 FM241000 00000KT 3SM BR HZ BKN020 BKN080 FM241700 03006KT 5SM HZ BKN030 BKN080
Issued Apr-23 @ 16:47 UTC
(6 hours ago)
Valid From Apr-23 @ 18:00 UTC
(5 hours ago)
Valid To Apr-24 @ 18:00 UTC
(in 19 hours)
Apr-23 @ 18:00 - Apr-23 @ 20:00
Clouds
  • Overcast at 2,500' AGL
Conditions
  • Mist
  • Haze
From Apr-23 @ 20:00 - Apr-24 @ 03:00
Wind Visibility
30° at 12 knots 5 miles
Clouds
  • Broken at 3,000' AGL
  • Broken at 8,000' AGL
Conditions
  • Haze
Probability 40% Probable Apr-23 @ 22:00 - Apr-24 @ 02:00
Conditions
  • Thunderstorm
  • Rain
From Apr-24 @ 03:00 - Apr-24 @ 10:00
Clouds
  • Broken at 3,000' AGL
  • Broken at 8,000' AGL
Conditions
  • Haze
From Apr-24 @ 10:00 - Apr-24 @ 17:00
Clouds
  • Broken at 2,000' AGL
  • Broken at 8,000' AGL
Conditions
  • Mist
  • Haze
From Apr-24 @ 17:00 - Apr-24 @ 18:00
Wind Visibility
30° at 6 knots 5 miles
Clouds
  • Broken at 3,000' AGL
  • Broken at 8,000' AGL
Conditions
  • Haze